createdAt,value
2018-10-02T00:01:56.846Z,45.70
2018-10-02T00:04:28.422Z,45.83
2018-10-02T00:06:59.714Z,45.32
2018-10-02T00:09:31.200Z,45.79
2018-10-02T00:12:07.643Z,46.19
2018-10-02T00:14:38.985Z,46.03
2018-10-02T00:17:10.497Z,46.17
2018-10-02T00:19:42.197Z,46.79
2018-10-02T00:22:13.705Z,45.87
2018-10-02T00:24:45.324Z,45.95
2018-10-02T00:27:16.833Z,46.44
2018-10-02T00:29:48.321Z,46.52
2018-10-02T00:32:19.912Z,46.61
2018-10-02T00:34:51.259Z,45.54
2018-10-02T00:37:22.710Z,45.54
2018-10-02T00:39:54.187Z,45.56
2018-10-02T00:42:25.690Z,45.40
2018-10-02T00:44:57.181Z,46.23
2018-10-02T00:47:28.676Z,45.45
2018-10-02T00:50:00.190Z,47.38
2018-10-02T00:52:31.706Z,46.09
2018-10-02T00:55:03.202Z,46.86
2018-10-02T00:57:34.686Z,46.94
2018-10-02T01:00:06.056Z,46.03
2018-10-02T01:02:37.754Z,46.35
2018-10-02T01:05:09.499Z,47.28
2018-10-02T01:07:40.830Z,46.01
2018-10-02T01:10:12.349Z,46.77
2018-10-02T01:12:43.865Z,46.26
2018-10-02T01:15:15.344Z,46.10
2018-10-02T01:17:46.701Z,46.85
2018-10-02T01:20:18.192Z,46.28
2018-10-02T01:22:49.697Z,46.69
2018-10-02T01:25:21.313Z,46.51
2018-10-02T01:27:52.796Z,46.29
2018-10-02T01:30:24.371Z,45.47
2018-10-02T01:32:56.341Z,46.08
2018-10-02T01:35:27.699Z,47.01
2018-10-02T01:37:59.067Z,45.76
2018-10-02T01:40:30.647Z,45.69
2018-10-02T01:43:01.978Z,45.97
2018-10-02T01:45:32.503Z,45.79
2018-10-02T01:48:03.869Z,46.36
2018-10-02T01:50:35.319Z,46.06
2018-10-02T01:53:06.796Z,45.45
2018-10-02T01:55:38.314Z,46.28
2018-10-02T01:58:09.710Z,46.02
2018-10-02T02:00:41.197Z,46.12
2018-10-02T02:03:12.697Z,46.43
2018-10-02T02:05:44.059Z,45.84
2018-10-02T02:08:15.628Z,45.87
2018-10-02T02:10:47.211Z,46.91
2018-10-02T02:13:18.739Z,46.50
2018-10-02T02:15:50.368Z,46.30
2018-10-02T02:18:21.740Z,46.44
2018-10-02T02:20:53.217Z,46.33
2018-10-02T02:23:24.723Z,46.33
2018-10-02T02:25:55.789Z,46.18
2018-10-02T02:28:26.790Z,47.01
2018-10-02T02:30:58.271Z,46.71
2018-10-02T02:33:29.665Z,46.83
2018-10-02T02:36:00.842Z,46.89
2018-10-02T02:38:32.372Z,46.31
2018-10-02T02:41:03.863Z,45.87
2018-10-02T02:43:35.349Z,45.83
2018-10-02T02:46:06.837Z,46.07
2018-10-02T02:48:43.319Z,45.83
2018-10-02T02:51:20.778Z,46.19
2018-10-02T02:53:52.332Z,46.30
2018-10-02T02:56:24.012Z,46.32
2018-10-02T02:58:55.692Z,47.06
2018-10-02T03:01:26.945Z,46.83
2018-10-02T03:03:57.515Z,46.24
2018-10-02T03:06:28.904Z,45.80
2018-10-02T03:09:00.782Z,45.56
2018-10-02T03:11:32.265Z,46.19
2018-10-02T03:14:03.694Z,47.05
2018-10-02T03:16:34.893Z,46.69
2018-10-02T03:19:06.328Z,46.58
2018-10-02T03:21:37.730Z,46.14
2018-10-02T03:24:09.192Z,45.88
2018-10-02T03:26:40.711Z,47.40
2018-10-02T03:29:12.514Z,46.22
2018-10-02T03:31:43.844Z,46.12
2018-10-02T03:34:15.493Z,47.16
2018-10-02T03:36:46.894Z,46.80
2018-10-02T03:39:18.414Z,46.60
2018-10-02T03:41:50.184Z,46.56
2018-10-02T03:44:21.670Z,47.38
2018-10-02T03:46:53.191Z,47.82
2018-10-02T03:49:24.674Z,47.36
2018-10-02T03:51:56.197Z,47.47
2018-10-02T03:54:28.353Z,46.95
2018-10-02T03:57:00.298Z,46.90
2018-10-02T03:59:31.753Z,46.64
2018-10-02T04:02:03.302Z,46.65
2018-10-02T04:04:34.712Z,46.78
2018-10-02T04:07:06.192Z,47.56
2018-10-02T04:09:37.716Z,47.17
2018-10-02T04:12:09.403Z,46.93
2018-10-02T04:14:40.706Z,47.08
2018-10-02T04:17:12.190Z,46.43
2018-10-02T04:19:43.689Z,46.48
2018-10-02T04:22:15.197Z,47.01
2018-10-02T04:24:46.752Z,46.71
2018-10-02T04:27:18.426Z,46.58
2018-10-02T04:29:49.736Z,46.82
2018-10-02T04:32:21.303Z,46.33
2018-10-02T04:34:52.783Z,47.03
2018-10-02T04:37:24.201Z,46.69
2018-10-02T04:39:55.671Z,46.72
2018-10-02T04:42:27.214Z,46.37
2018-10-02T04:44:58.707Z,47.27
2018-10-02T04:47:30.302Z,46.00
2018-10-02T04:50:01.674Z,46.30
2018-10-02T04:52:32.971Z,46.87
2018-10-02T04:55:04.565Z,46.89
2018-10-02T04:57:35.975Z,46.04
2018-10-02T05:00:07.795Z,46.94
2018-10-02T05:02:38.971Z,46.29
2018-10-02T05:05:10.574Z,47.13
2018-10-02T05:07:42.204Z,47.34
2018-10-02T05:10:13.690Z,47.06
2018-10-02T05:12:45.064Z,46.69
2018-10-02T05:15:16.647Z,46.52
2018-10-02T05:17:47.827Z,47.10
2018-10-02T05:20:19.523Z,46.52
2018-10-02T05:22:50.988Z,46.03
2018-10-02T05:25:22.489Z,44.75
2018-10-02T05:27:53.977Z,46.94
2018-10-02T05:30:25.518Z,47.46
2018-10-02T05:32:56.831Z,46.61
2018-10-02T05:35:28.347Z,45.93
2018-10-02T05:37:59.711Z,46.77
2018-10-02T05:40:31.338Z,45.33
2018-10-02T05:43:02.732Z,45.62
2018-10-02T05:45:34.566Z,45.99
2018-10-02T05:48:06.194Z,46.56
2018-10-02T05:50:37.775Z,45.74
2018-10-02T05:53:09.202Z,46.07
2018-10-02T05:55:40.691Z,46.27
2018-10-02T05:58:12.238Z,44.73
2018-10-02T06:00:43.759Z,45.31
2018-10-02T06:03:15.419Z,46.54
2018-10-02T06:05:46.723Z,45.80
2018-10-02T06:08:17.738Z,46.42
2018-10-02T06:10:48.752Z,46.10
2018-10-02T06:13:20.358Z,46.95
2018-10-02T06:15:51.820Z,46.22
2018-10-02T06:18:23.300Z,46.54
2018-10-02T06:20:54.710Z,46.73
2018-10-02T06:23:25.989Z,47.48
2018-10-02T06:25:58.057Z,47.09
2018-10-02T06:28:29.794Z,46.01
2018-10-02T06:31:01.351Z,46.49
2018-10-02T06:33:32.800Z,46.93
2018-10-02T06:36:06.870Z,47.13
2018-10-02T06:38:38.552Z,46.61
2018-10-02T06:41:09.967Z,46.50
2018-10-02T06:43:41.557Z,46.75
2018-10-02T06:46:13.180Z,46.41
2018-10-02T06:48:44.650Z,46.45
2018-10-02T06:51:16.293Z,46.09
2018-10-02T06:53:47.714Z,46.60
2018-10-02T06:56:19.301Z,45.82
2018-10-02T06:58:50.876Z,46.45
2018-10-02T07:01:22.406Z,47.32
2018-10-02T07:03:53.796Z,46.67
2018-10-02T07:06:25.395Z,46.68
2018-10-02T07:08:56.752Z,46.22
2018-10-02T07:11:28.314Z,47.29
2018-10-02T07:13:59.753Z,47.06
2018-10-02T07:16:31.364Z,47.11
2018-10-02T07:19:02.728Z,47.19
2018-10-02T07:21:34.391Z,46.35
2018-10-02T07:24:05.742Z,46.73
2018-10-02T07:26:37.282Z,46.75
2018-10-02T07:29:08.744Z,46.42
2018-10-02T07:31:40.694Z,45.38
2018-10-02T07:34:12.458Z,46.13
2018-10-02T07:36:43.959Z,45.94
2018-10-02T07:39:15.410Z,46.12
2018-10-02T07:41:47.020Z,46.50
2018-10-02T07:44:18.720Z,46.46
2018-10-02T07:46:50.325Z,45.78
2018-10-02T07:49:21.766Z,46.74
2018-10-02T07:51:53.431Z,46.91
2018-10-02T07:54:24.802Z,46.64
2018-10-02T07:56:56.368Z,46.08
2018-10-02T07:59:27.727Z,45.78
2018-10-02T08:01:59.408Z,46.86
2018-10-02T08:04:30.843Z,47.05
2018-10-02T08:07:02.432Z,46.06
2018-10-02T08:09:33.900Z,46.38
2018-10-02T08:12:05.431Z,47.16
2018-10-02T08:14:36.769Z,46.61
2018-10-02T08:17:08.219Z,46.69
2018-10-02T08:19:40.218Z,45.88
2018-10-02T08:22:11.716Z,46.00
2018-10-02T08:24:43.302Z,46.14
2018-10-02T08:27:14.972Z,46.05
2018-10-02T08:29:46.360Z,46.44
2018-10-02T08:32:17.862Z,46.26
2018-10-02T08:34:49.375Z,46.39
2018-10-02T08:37:21.006Z,46.64
2018-10-02T08:39:52.655Z,46.27
2018-10-02T08:42:24.202Z,46.59
2018-10-02T08:44:55.397Z,46.22
2018-10-02T08:47:26.635Z,45.75
2018-10-02T08:49:57.590Z,46.34
2018-10-02T08:52:28.626Z,46.22
2018-10-02T08:54:59.545Z,46.15
2018-10-02T08:57:30.655Z,46.13
2018-10-02T09:00:01.623Z,45.88
2018-10-02T09:02:32.690Z,45.85
2018-10-02T09:05:03.662Z,46.07
2018-10-02T09:07:34.605Z,45.85
2018-10-02T09:10:05.576Z,45.95
2018-10-02T09:12:36.638Z,45.44
2018-10-02T09:15:12.157Z,46.16
2018-10-02T09:17:38.812Z,45.88
2018-10-02T09:20:09.804Z,46.09
2018-10-02T09:22:40.848Z,45.77
2018-10-02T09:25:11.806Z,45.38
2018-10-02T09:27:42.882Z,45.57
2018-10-02T09:30:19.085Z,45.49
2018-10-02T09:32:55.207Z,45.23
2018-10-02T09:35:31.414Z,45.39
2018-10-02T09:38:07.725Z,45.80
2018-10-02T09:40:51.818Z,45.63
2018-10-02T09:43:27.521Z,45.60
2018-10-02T09:48:40.396Z,45.59
2018-10-02T09:51:11.498Z,45.25
2018-10-02T09:53:42.636Z,45.59
2018-10-02T09:56:14.194Z,45.20
2018-10-02T09:58:45.730Z,45.14
2018-10-02T10:01:22.287Z,45.30
2018-10-02T10:03:53.773Z,45.09
2018-10-02T10:06:24.799Z,44.88
2018-10-02T10:08:56.302Z,45.08
2018-10-02T10:11:27.768Z,44.61
2018-10-02T10:13:59.195Z,45.28
2018-10-02T10:16:30.755Z,45.29
2018-10-02T10:19:02.196Z,45.28
2018-10-02T10:21:33.679Z,45.31
2018-10-02T10:24:05.271Z,45.19
2018-10-02T10:26:36.710Z,45.24
2018-10-02T10:29:08.744Z,44.29
2018-10-02T10:31:40.194Z,43.50
2018-10-02T10:34:11.623Z,44.38
2018-10-02T10:36:42.897Z,44.58
2018-10-02T10:39:14.577Z,44.66
2018-10-02T10:41:45.991Z,44.18
2018-10-02T10:44:17.716Z,44.69
2018-10-02T10:46:49.020Z,44.13
2018-10-02T10:49:20.577Z,44.26
2018-10-02T10:51:51.969Z,44.79
2018-10-02T10:54:22.532Z,43.31
2018-10-02T10:56:54.220Z,44.47
2018-10-02T10:59:25.787Z,44.26
2018-10-02T11:01:57.335Z,44.07
2018-10-02T11:04:28.808Z,44.13
2018-10-02T11:07:00.243Z,44.41
2018-10-02T11:09:31.743Z,44.55
2018-10-02T11:12:03.337Z,44.54
2018-10-02T11:14:34.783Z,44.18
2018-10-02T11:17:06.371Z,44.29
2018-10-02T11:19:37.779Z,44.62
2018-10-02T11:22:09.200Z,44.73
2018-10-02T11:24:40.728Z,44.97
2018-10-02T11:27:12.334Z,44.04
2018-10-02T11:29:43.766Z,44.54
2018-10-02T11:32:15.363Z,44.51
2018-10-02T11:34:46.990Z,44.80
2018-10-02T11:37:18.576Z,44.86
2018-10-02T11:39:49.895Z,44.76
2018-10-02T11:42:21.352Z,44.61
2018-10-02T11:44:53.000Z,44.92
2018-10-02T11:47:24.394Z,45.51
2018-10-02T11:49:55.951Z,45.69
2018-10-02T11:52:26.556Z,45.41
2018-10-02T11:54:57.905Z,44.96
2018-10-02T11:57:29.412Z,45.50
2018-10-02T12:00:00.795Z,45.61
2018-10-02T12:02:32.376Z,44.77
2018-10-02T12:05:03.759Z,45.75
2018-10-02T12:07:35.303Z,45.40
2018-10-02T12:10:06.984Z,45.16
2018-10-02T12:12:39.727Z,45.18
2018-10-02T12:15:11.501Z,45.12
2018-10-02T12:17:43.547Z,44.14
2018-10-02T12:20:15.486Z,45.56
2018-10-02T12:22:46.966Z,45.22
2018-10-02T12:25:17.609Z,45.44
2018-10-02T12:27:48.990Z,45.15
2018-10-02T12:30:20.516Z,45.62
2018-10-02T12:32:51.868Z,44.99
2018-10-02T12:35:23.361Z,45.66
2018-10-02T12:37:54.778Z,45.46
2018-10-02T12:40:25.787Z,44.86
2018-10-02T12:42:56.791Z,45.53
2018-10-02T12:45:27.746Z,45.73
2018-10-02T12:47:59.318Z,44.75
2018-10-02T12:50:30.762Z,44.93
2018-10-02T12:53:02.675Z,45.71
2018-10-02T12:55:33.928Z,44.92
2018-10-02T12:58:05.547Z,45.86
2018-10-02T13:00:37.008Z,45.83
2018-10-02T13:03:08.555Z,45.47
2018-10-02T13:05:40.341Z,45.78
2018-10-02T13:08:11.837Z,45.38
2018-10-02T13:10:43.296Z,44.39
2018-10-02T13:13:14.783Z,46.08
2018-10-02T13:15:46.196Z,45.65
2018-10-02T13:18:17.695Z,45.40
2018-10-02T13:20:49.397Z,45.42
2018-10-02T13:23:20.870Z,45.66
2018-10-02T13:25:52.404Z,45.89
2018-10-02T13:28:23.843Z,45.63
2018-10-02T13:30:55.237Z,45.77
2018-10-02T13:33:26.325Z,45.79
2018-10-02T13:35:57.787Z,45.93
2018-10-02T13:38:29.283Z,45.13
2018-10-02T13:41:00.715Z,45.01
2018-10-02T13:43:31.988Z,45.39
2018-10-02T13:46:02.576Z,45.51
2018-10-02T13:48:34.225Z,45.32
2018-10-02T13:51:05.728Z,45.57
2018-10-02T13:53:37.381Z,45.70
2018-10-02T13:56:09.205Z,45.99
2018-10-02T13:58:40.670Z,45.78
2018-10-02T14:01:11.897Z,45.08
2018-10-02T14:03:43.377Z,45.59
2018-10-02T14:06:14.762Z,45.86
2018-10-02T14:08:46.213Z,44.78
2018-10-02T14:11:17.694Z,44.18
2018-10-02T14:13:48.986Z,43.93
2018-10-02T14:16:20.536Z,43.52
2018-10-02T14:18:51.916Z,43.18
2018-10-02T14:21:22.567Z,43.31
2018-10-02T14:23:53.848Z,42.82
2018-10-02T14:26:25.203Z,42.75
2018-10-02T14:28:56.736Z,42.56
2018-10-02T14:31:28.307Z,43.19
2018-10-02T14:33:59.740Z,42.60
2018-10-02T14:36:31.320Z,43.11
2018-10-02T14:39:02.700Z,43.08
2018-10-02T14:41:34.204Z,43.07
2018-10-02T14:44:06.613Z,42.98
2018-10-02T14:46:37.662Z,43.08
2018-10-02T14:49:08.808Z,43.37
2018-10-02T14:51:40.302Z,43.59
2018-10-02T14:54:11.785Z,43.08
2018-10-02T14:56:43.261Z,43.11
2018-10-02T14:59:14.677Z,42.96
2018-10-02T15:01:46.191Z,43.32
2018-10-02T15:04:17.670Z,43.13
2018-10-02T15:06:48.988Z,43.53
2018-10-02T15:09:20.834Z,43.74
2018-10-02T15:11:52.377Z,42.97
2018-10-02T15:14:23.749Z,43.58
2018-10-02T15:16:55.731Z,43.43
2018-10-02T15:19:27.335Z,43.45
2018-10-02T15:21:58.767Z,42.23
2018-10-02T15:24:30.317Z,41.68
2018-10-02T15:27:01.816Z,41.14
2018-10-02T15:29:33.538Z,41.73
2018-10-02T15:32:04.967Z,41.99
2018-10-02T15:34:35.546Z,41.39
2018-10-02T15:39:49.766Z,42.48
2018-10-02T15:42:21.213Z,42.29
2018-10-02T15:44:52.699Z,42.26
2018-10-02T15:47:24.191Z,42.32
2018-10-02T15:49:55.874Z,44.06
2018-10-02T15:52:27.388Z,43.28
2018-10-02T15:54:58.773Z,42.45
2018-10-02T15:57:30.371Z,43.55
2018-10-02T16:00:04.614Z,43.05
2018-10-02T16:02:35.973Z,43.44
2018-10-02T16:05:07.637Z,43.69
2018-10-02T16:07:39.213Z,43.86
2018-10-02T16:10:10.739Z,43.43
2018-10-02T16:12:42.350Z,43.11
2018-10-02T16:15:13.723Z,44.02
2018-10-02T16:17:45.231Z,43.23
2018-10-02T16:20:16.692Z,43.98
2018-10-02T16:22:48.191Z,43.59
2018-10-02T16:25:19.736Z,43.61
2018-10-02T16:27:51.421Z,43.99
2018-10-02T16:31:34.346Z,44.12
2018-10-02T16:34:05.576Z,44.06
2018-10-02T16:36:36.894Z,44.59
2018-10-02T16:39:10.810Z,44.74
2018-10-02T16:41:42.376Z,44.66
2018-10-02T16:44:13.752Z,45.36
2018-10-02T16:46:45.007Z,45.43
2018-10-02T16:49:16.696Z,45.39
2018-10-02T16:52:24.359Z,45.11
2018-10-02T16:54:55.656Z,45.18
2018-10-02T16:57:26.638Z,45.34
2018-10-02T16:59:57.653Z,45.77
2018-10-02T17:02:28.853Z,45.50
2018-10-02T17:05:00.494Z,45.72
2018-10-02T17:07:32.307Z,45.79
2018-10-02T17:10:04.889Z,45.82
2018-10-02T17:12:36.368Z,45.90
2018-10-02T17:15:07.990Z,45.82
2018-10-02T17:17:39.646Z,46.18
2018-10-02T17:20:11.191Z,46.12
2018-10-02T17:22:42.732Z,46.49
2018-10-02T17:25:14.310Z,46.00
2018-10-02T17:27:45.707Z,45.54
2018-10-02T17:30:17.195Z,45.72
2018-10-02T17:32:49.208Z,45.84
2018-10-02T17:35:20.630Z,45.51
2018-10-02T17:37:51.978Z,45.84
2018-10-02T17:40:22.894Z,45.93
2018-10-02T17:42:54.006Z,45.83
2018-10-02T17:45:25.498Z,45.88
2018-10-02T17:47:56.873Z,45.69
2018-10-02T17:50:28.369Z,45.36
2018-10-02T17:52:59.728Z,45.51
2018-10-02T17:55:31.311Z,45.44
2018-10-02T17:58:02.721Z,45.31
2018-10-02T18:00:34.338Z,45.45
2018-10-02T18:03:05.879Z,45.63
2018-10-02T18:05:38.623Z,45.51
2018-10-02T18:08:10.177Z,45.38
2018-10-02T18:10:41.678Z,45.42
2018-10-02T18:13:12.987Z,44.85
2018-10-02T18:15:44.593Z,45.47
2018-10-02T18:18:15.906Z,45.06
2018-10-02T18:20:47.737Z,45.16
2018-10-02T18:23:19.381Z,45.32
2018-10-02T18:25:50.792Z,45.25
2018-10-02T18:28:21.903Z,44.83
2018-10-02T18:30:53.348Z,45.14
2018-10-02T18:33:24.772Z,45.18
2018-10-02T18:35:55.811Z,45.55
2018-10-02T18:38:27.014Z,45.35
2018-10-02T18:40:58.728Z,45.57
2018-10-02T18:43:30.294Z,45.43
2018-10-02T18:46:01.739Z,45.67
2018-10-02T18:48:33.350Z,45.54
2018-10-02T18:51:04.709Z,45.24
2018-10-02T18:53:36.279Z,45.33
2018-10-02T18:56:08.737Z,45.36
2018-10-02T18:58:40.611Z,45.30
2018-10-02T19:02:49.359Z,45.23
2018-10-02T19:05:20.844Z,45.06
2018-10-02T19:07:52.338Z,45.73
2018-10-02T19:10:23.788Z,45.29
2018-10-02T19:12:55.360Z,45.41
2018-10-02T19:15:27.291Z,45.25
2018-10-02T19:17:58.757Z,45.54
2018-10-02T19:20:35.757Z,45.29
2018-10-02T19:23:06.910Z,45.42
2018-10-02T19:25:42.359Z,45.52
2018-10-02T19:28:13.832Z,45.50
2018-10-02T19:30:50.619Z,44.87
2018-10-02T19:33:22.494Z,45.38
2018-10-02T19:35:54.295Z,45.08
2018-10-02T19:41:12.848Z,45.17
2018-10-02T19:43:43.901Z,45.03
2018-10-02T19:46:20.486Z,45.46
2018-10-02T19:48:51.892Z,45.53
2018-10-02T19:51:28.403Z,45.48
2018-10-02T19:53:59.877Z,45.06
2018-10-02T19:56:31.539Z,45.40
2018-10-02T19:59:03.059Z,45.01
2018-10-02T20:01:34.658Z,45.04
2018-10-02T20:04:06.241Z,45.39
2018-10-02T20:06:37.714Z,45.01
2018-10-02T20:09:10.898Z,45.25
2018-10-02T20:11:42.550Z,45.05
2018-10-02T20:14:14.405Z,45.04
2018-10-02T20:16:45.846Z,45.07
2018-10-02T20:19:19.435Z,44.94
2018-10-02T20:21:51.849Z,45.08
2018-10-02T20:24:24.750Z,45.44
2018-10-02T20:26:56.638Z,45.12
2018-10-02T20:29:28.191Z,45.07
2018-10-02T20:31:59.789Z,45.49
2018-10-02T20:34:32.552Z,45.38
2018-10-02T20:37:04.183Z,45.00
2018-10-02T20:39:35.640Z,45.41
2018-10-02T20:42:07.194Z,44.99
2018-10-02T20:44:38.680Z,45.36
2018-10-02T20:47:10.194Z,45.47
2018-10-02T20:49:41.713Z,45.55
2018-10-02T20:52:13.199Z,45.34
2018-10-02T20:54:44.714Z,45.27
2018-10-02T20:57:16.201Z,45.15
2018-10-02T20:59:49.513Z,45.23
2018-10-02T21:02:21.212Z,45.29
2018-10-02T21:04:52.756Z,45.48
2018-10-02T21:07:24.351Z,45.30
2018-10-02T21:09:55.872Z,45.81
2018-10-02T21:12:27.424Z,45.44
2018-10-02T21:14:59.192Z,45.67
2018-10-02T21:17:30.686Z,45.36
2018-10-02T21:20:02.287Z,45.66
2018-10-02T21:22:34.652Z,45.52
2018-10-02T21:25:06.029Z,45.33
2018-10-02T21:30:05.569Z,45.41
2018-10-02T21:32:36.744Z,45.60
2018-10-02T21:35:08.300Z,45.41
2018-10-02T21:37:39.831Z,45.64
2018-10-02T21:40:11.837Z,45.58
2018-10-02T21:42:43.590Z,45.62
2018-10-02T21:45:15.204Z,45.85
2018-10-02T21:47:46.752Z,45.81
2018-10-02T21:50:18.377Z,45.52
2018-10-02T21:52:49.884Z,45.35
2018-10-02T21:55:21.407Z,45.35
2018-10-02T21:57:52.823Z,45.49
2018-10-02T22:00:24.411Z,45.73
2018-10-02T22:02:55.758Z,45.81
2018-10-02T22:05:27.651Z,45.56
2018-10-02T22:07:59.183Z,45.68
2018-10-02T22:10:30.802Z,45.83
2018-10-02T22:13:02.394Z,45.68
2018-10-02T22:15:33.837Z,45.65
2018-10-02T22:18:05.396Z,45.66
2018-10-02T22:20:36.770Z,45.46
2018-10-02T22:23:08.512Z,45.44
2018-10-02T22:25:40.221Z,45.13
2018-10-02T22:28:11.656Z,45.57
2018-10-02T22:30:42.980Z,45.34
2018-10-02T22:33:14.296Z,45.59
2018-10-02T22:35:45.751Z,45.74
2018-10-02T22:38:17.317Z,45.48
2018-10-02T22:40:48.707Z,45.46
2018-10-02T22:43:20.365Z,45.35
2018-10-02T22:45:51.770Z,45.33
2018-10-02T22:48:23.258Z,45.47
2018-10-02T22:50:54.707Z,45.60
2018-10-02T22:53:26.303Z,45.60
2018-10-02T22:55:57.747Z,45.73
2018-10-02T22:58:29.272Z,45.58
2018-10-02T23:01:00.712Z,45.62
2018-10-02T23:03:32.205Z,45.52
2018-10-02T23:06:03.719Z,45.83
2018-10-02T23:08:35.368Z,45.75
2018-10-02T23:11:06.812Z,45.74
2018-10-02T23:13:38.309Z,45.59
2018-10-02T23:16:09.879Z,45.53
2018-10-02T23:18:41.661Z,45.70
2018-10-02T23:21:13.181Z,45.36
2018-10-02T23:23:44.672Z,45.47
2018-10-02T23:26:16.211Z,45.66
2018-10-02T23:28:47.696Z,45.74
2018-10-02T23:31:19.286Z,45.75
2018-10-02T23:33:50.730Z,45.77
2018-10-02T23:36:22.193Z,45.78
2018-10-02T23:40:44.329Z,45.47
2018-10-02T23:43:15.550Z,45.59
2018-10-02T23:45:46.684Z,45.46
2018-10-02T23:48:18.396Z,45.99
2018-10-02T23:50:49.952Z,45.88
2018-10-02T23:53:20.570Z,45.48
2018-10-02T23:55:52.251Z,45.47
2018-10-02T23:58:23.695Z,45.43
